createdAt,value
2018-08-19T00:00:01.762Z,14.63
2018-08-19T00:02:31.990Z,11.70
2018-08-19T00:05:15.434Z,10.60
2018-08-19T00:07:46.021Z,9.85
2018-08-19T00:10:16.788Z,10.25
2018-08-19T00:12:48.574Z,8.53
2018-08-19T00:15:18.770Z,12.60
2018-08-19T00:17:48.912Z,8.87
2018-08-19T00:20:19.106Z,10.43
2018-08-19T00:22:50.524Z,10.35
2018-08-19T00:25:42.153Z,8.77
2018-08-19T00:28:14.816Z,9.47
2018-08-19T00:30:45.183Z,13.30
2018-08-19T00:33:15.617Z,8.83
2018-08-19T00:35:45.779Z,11.40
2018-08-19T00:38:16.918Z,10.28
2018-08-19T00:40:46.996Z,10.73
2018-08-19T00:43:18.851Z,14.83
2018-08-19T00:45:49.088Z,10.10
2018-08-19T00:48:19.167Z,9.40
2018-08-19T00:50:49.297Z,11.83
2018-08-19T00:53:19.325Z,9.87
2018-08-19T00:55:51.318Z,10.83
2018-08-19T00:58:23.631Z,12.35
2018-08-19T01:00:56.397Z,10.45
2018-08-19T01:03:26.600Z,10.50
2018-08-19T01:05:56.801Z,11.80
2018-08-19T01:08:26.957Z,11.22
2018-08-19T01:10:57.127Z,10.80
2018-08-19T01:13:27.984Z,15.10
2018-08-19T01:15:58.165Z,11.40
2018-08-19T01:18:28.278Z,12.07
2018-08-19T01:21:10.598Z,9.47
2018-08-19T01:23:42.716Z,11.57
2018-08-19T01:26:14.038Z,13.03
2018-08-19T01:28:44.929Z,11.70
2018-08-19T01:31:15.679Z,11.93
2018-08-19T01:33:45.842Z,13.33
2018-08-19T01:36:16.405Z,11.30
2018-08-19T01:38:46.750Z,10.27
2018-08-19T01:41:16.838Z,11.10
2018-08-19T01:43:58.744Z,11.33
2018-08-19T01:46:30.393Z,11.05
2018-08-19T01:49:01.724Z,12.13
2018-08-19T01:51:32.339Z,11.10
2018-08-19T01:54:37.066Z,10.60
2018-08-19T01:57:07.410Z,11.10
2018-08-19T01:59:37.744Z,10.87
2018-08-19T02:02:08.510Z,14.13
2018-08-19T02:04:57.313Z,11.63
2018-08-19T02:07:27.732Z,11.67
2018-08-19T02:10:02.427Z,11.80
2018-08-19T02:12:39.716Z,11.30
2018-08-19T02:15:11.148Z,12.80
2018-08-19T02:18:15.708Z,11.18
2018-08-19T02:20:46.862Z,12.93
2018-08-19T02:23:17.079Z,11.40
2018-08-19T02:25:48.573Z,11.53
2018-08-19T02:28:22.597Z,11.55
2018-08-19T02:31:00.475Z,11.95
2018-08-19T02:33:33.650Z,13.63
2018-08-19T02:36:06.733Z,13.87
2018-08-19T02:38:38.076Z,13.27
2018-08-19T02:41:08.660Z,14.43
2018-08-19T02:43:46.597Z,14.13
2018-08-19T02:46:16.966Z,16.93
2018-08-19T02:48:51.071Z,14.83
2018-08-19T02:51:21.924Z,12.30
2018-08-19T02:53:54.342Z,13.00
2018-08-19T02:56:24.278Z,12.70
2018-08-19T02:58:54.517Z,12.17
2018-08-19T03:01:24.882Z,11.15
2018-08-19T03:03:56.905Z,11.73
2018-08-19T03:06:27.404Z,11.67
2018-08-19T03:09:00.118Z,11.65
2018-08-19T03:11:30.589Z,12.15
2018-08-19T03:14:01.701Z,11.63
2018-08-19T03:16:32.436Z,11.77
2018-08-19T03:19:02.573Z,11.10
2018-08-19T03:21:35.482Z,12.00
2018-08-19T03:24:07.292Z,11.60
2018-08-19T03:26:37.937Z,12.30
2018-08-19T03:29:14.786Z,12.27
2018-08-19T03:31:49.549Z,13.83
2018-08-19T03:34:19.870Z,13.80
2018-08-19T03:36:50.389Z,12.23
2018-08-19T03:39:21.322Z,12.30
2018-08-19T03:41:51.814Z,14.30
2018-08-19T03:44:22.206Z,14.35
2018-08-19T03:46:54.351Z,15.00
2018-08-19T03:49:25.674Z,21.05
2018-08-19T03:51:55.659Z,15.57
2018-08-19T03:54:26.627Z,16.27
2018-08-19T03:56:57.308Z,16.73
2018-08-19T03:59:27.832Z,16.77
2018-08-19T04:01:58.343Z,17.70
2018-08-19T04:04:28.730Z,15.98
2018-08-19T04:06:59.262Z,12.60
2018-08-19T04:09:29.461Z,15.48
2018-08-19T04:12:08.848Z,14.47
2018-08-19T04:14:39.351Z,13.03
2018-08-19T04:17:11.817Z,13.50
2018-08-19T04:19:44.427Z,15.13
2018-08-19T04:22:15.027Z,14.80
2018-08-19T04:24:46.227Z,13.87
2018-08-19T04:27:17.103Z,15.17
2018-08-19T04:29:47.593Z,15.15
2018-08-19T04:32:24.894Z,13.23
2018-08-19T04:34:55.444Z,14.30
2018-08-19T04:37:25.976Z,13.63
2018-08-19T04:39:56.554Z,14.50
2018-08-19T04:42:27.003Z,13.25
2018-08-19T04:44:57.366Z,12.90
2018-08-19T04:47:31.002Z,14.20
2018-08-19T04:50:01.071Z,12.90
2018-08-19T04:52:32.970Z,16.17
2018-08-19T04:55:03.259Z,12.90
2018-08-19T04:57:33.653Z,14.07
2018-08-19T05:00:04.116Z,13.87
2018-08-19T05:02:35.641Z,14.10
2018-08-19T05:05:06.058Z,14.07
2018-08-19T05:07:36.586Z,13.90
2018-08-19T05:10:07.264Z,12.23
2018-08-19T05:12:37.943Z,14.43
2018-08-19T05:15:08.266Z,18.30
2018-08-19T05:17:38.981Z,14.27
2018-08-19T05:20:15.856Z,15.47
2018-08-19T05:22:46.260Z,13.13
2018-08-19T05:25:16.982Z,14.03
2018-08-19T05:27:52.677Z,13.73
2018-08-19T05:30:23.088Z,13.70
2018-08-19T05:32:58.689Z,13.87
2018-08-19T05:35:29.297Z,16.23
2018-08-19T05:38:00.124Z,15.72
2018-08-19T05:40:31.004Z,16.47
2018-08-19T05:43:01.009Z,16.82
2018-08-19T05:45:31.288Z,12.27
2018-08-19T05:48:08.572Z,22.60
2018-08-19T05:50:39.012Z,12.90
2018-08-19T05:53:09.744Z,13.43
2018-08-19T05:55:41.622Z,14.63
2018-08-19T05:58:12.344Z,12.77
2018-08-19T06:00:44.908Z,13.47
2018-08-19T06:03:15.676Z,12.40
2018-08-19T06:05:46.279Z,12.73
2018-08-19T06:08:17.336Z,12.80
2018-08-19T06:10:48.615Z,13.57
2018-08-19T06:13:19.203Z,12.68
2018-08-19T06:15:49.859Z,16.42
2018-08-19T06:18:21.973Z,12.25
2018-08-19T06:20:52.463Z,12.40
2018-08-19T06:23:23.394Z,12.53
2018-08-19T06:25:56.013Z,12.33
2018-08-19T06:28:26.239Z,12.63
2018-08-19T06:30:57.300Z,12.57
2018-08-19T06:33:27.898Z,13.07
2018-08-19T06:35:57.764Z,12.50
2018-08-19T06:38:28.390Z,13.55
2018-08-19T06:40:58.708Z,15.00
2018-08-19T06:43:29.196Z,13.58
2018-08-19T06:45:59.362Z,15.13
2018-08-19T06:48:29.924Z,12.20
2018-08-19T06:51:00.500Z,14.98
2018-08-19T06:53:31.009Z,13.10
2018-08-19T06:56:01.223Z,14.47
2018-08-19T06:58:31.320Z,11.48
2018-08-19T07:01:01.545Z,12.53
2018-08-19T07:03:31.751Z,11.30
2018-08-19T07:06:11.439Z,13.50
2018-08-19T07:08:41.528Z,11.93
2018-08-19T07:11:12.172Z,12.80
2018-08-19T07:13:42.575Z,13.37
2018-08-19T07:16:12.651Z,11.63
2018-08-19T07:18:43.262Z,12.10
2018-08-19T07:34:20.002Z,12.43
2018-08-19T07:36:50.593Z,11.15
2018-08-19T07:39:23.113Z,10.73
2018-08-19T07:41:54.637Z,10.47
2018-08-19T07:44:25.281Z,11.07
2018-08-19T07:46:55.802Z,9.50
2018-08-19T07:49:27.033Z,10.25
2018-08-19T07:51:57.494Z,10.63
2018-08-19T07:54:27.893Z,10.63
2018-08-19T07:56:58.587Z,10.87
2018-08-19T07:59:29.892Z,10.65
2018-08-19T08:02:02.696Z,10.20
2018-08-19T08:04:37.893Z,10.57
2018-08-19T08:07:08.012Z,9.40
2018-08-19T08:09:38.236Z,9.13
2018-08-19T08:12:10.910Z,8.90
2018-08-19T08:14:55.874Z,8.70
2018-08-19T08:17:27.348Z,11.40
2018-08-19T08:20:02.409Z,10.17
2018-08-19T08:22:33.747Z,9.33
2018-08-19T08:25:06.879Z,8.60
2018-08-19T08:27:39.470Z,9.80
2018-08-19T08:30:12.647Z,7.43
2018-08-19T08:32:46.127Z,7.33
2018-08-19T08:35:16.573Z,8.67
2018-08-19T08:37:46.781Z,8.37
2018-08-19T08:53:21.593Z,9.03
2018-08-19T08:55:52.977Z,7.07
2018-08-19T08:58:23.263Z,7.28
2018-08-19T09:00:53.979Z,10.55
2018-08-19T09:03:24.721Z,7.40
2018-08-19T09:05:55.249Z,8.83
2018-08-19T09:08:26.842Z,7.45
2018-08-19T09:10:58.471Z,7.00
2018-08-19T09:13:34.569Z,7.63
2018-08-19T09:16:04.889Z,6.50
2018-08-19T09:18:34.998Z,8.83
2018-08-19T09:21:05.548Z,6.73
2018-08-19T09:23:36.020Z,6.77
2018-08-19T09:26:06.385Z,7.63
2018-08-19T09:28:36.679Z,6.60
2018-08-19T09:31:06.013Z,7.60
2018-08-19T09:33:36.952Z,7.37
2018-08-19T09:36:07.638Z,6.80
2018-08-19T09:38:37.834Z,6.40
2018-08-19T09:41:08.032Z,8.80
2018-08-19T09:43:38.696Z,5.90
2018-08-19T09:46:09.389Z,6.87
2018-08-19T09:48:39.645Z,5.37
2018-08-19T09:51:15.797Z,5.60
2018-08-19T09:53:46.146Z,6.13
2018-08-19T09:56:16.802Z,5.90
2018-08-19T09:58:52.085Z,5.93
2018-08-19T10:01:27.530Z,8.10
2018-08-19T10:03:58.005Z,5.73
2018-08-19T10:06:28.494Z,5.47
2018-08-19T10:08:58.867Z,5.80
2018-08-19T10:14:03.866Z,5.57
2018-08-19T10:16:44.673Z,5.40
2018-08-19T10:19:16.552Z,5.77
2018-08-19T10:21:46.816Z,5.40
2018-08-19T10:24:22.683Z,5.43
2018-08-19T10:26:54.063Z,5.42
2018-08-19T10:29:24.572Z,5.13
2018-08-19T10:32:03.115Z,8.07
2018-08-19T10:34:36.392Z,5.20
2018-08-19T10:37:06.735Z,5.73
2018-08-19T10:39:37.394Z,5.07
2018-08-19T10:42:21.307Z,5.03
2018-08-19T10:44:53.319Z,5.20
2018-08-19T10:47:23.809Z,5.57
2018-08-19T10:49:59.919Z,6.23
2018-08-19T10:52:31.289Z,4.63
2018-08-19T10:55:02.422Z,6.92
2018-08-19T10:57:32.934Z,6.47
2018-08-19T11:00:03.159Z,5.17
2018-08-19T11:02:33.242Z,4.90
2018-08-19T11:05:03.844Z,5.00
2018-08-19T11:07:34.276Z,5.33
2018-08-19T11:10:21.240Z,4.53
2018-08-19T11:12:54.717Z,6.70
2018-08-19T11:15:34.559Z,5.00
2018-08-19T11:18:22.855Z,5.27
2018-08-19T11:20:56.832Z,5.12
2018-08-19T11:23:28.717Z,6.75
2018-08-19T11:25:59.528Z,5.17
2018-08-19T11:28:39.752Z,4.87
2018-08-19T11:31:21.851Z,4.07
2018-08-19T11:33:53.505Z,4.10
2018-08-19T11:36:58.547Z,6.60
2018-08-19T11:39:34.274Z,4.10
2018-08-19T11:42:04.687Z,5.20
2018-08-19T11:44:36.285Z,4.10
2018-08-19T11:47:11.198Z,3.70
2018-08-19T11:49:45.781Z,4.07
2018-08-19T11:52:16.611Z,5.60
2018-08-19T11:54:46.241Z,5.25
2018-08-19T11:57:15.502Z,4.87
2018-08-19T11:59:46.892Z,4.10
2018-08-19T12:02:18.608Z,4.70
2018-08-19T12:04:48.295Z,4.67
2018-08-19T12:07:18.176Z,3.90
2018-08-19T12:10:06.846Z,3.83
2018-08-19T12:12:47.547Z,5.30
2018-08-19T12:15:16.856Z,4.27
2018-08-19T12:17:46.200Z,3.80
2018-08-19T12:20:23.245Z,4.60
2018-08-19T12:22:53.508Z,3.97
2018-08-19T12:25:23.723Z,24.13
2018-08-19T12:27:53.909Z,3.70
2018-08-19T12:30:25.478Z,3.80
2018-08-19T12:33:05.173Z,4.17
2018-08-19T12:35:35.287Z,3.50
2018-08-19T12:38:05.433Z,5.40
2018-08-19T12:40:39.230Z,4.33
2018-08-19T12:43:09.485Z,3.80
2018-08-19T13:18:28.956Z,3.40
2018-08-19T15:24:19.098Z,4.30
2018-08-19T15:26:49.819Z,2.70
2018-08-19T15:29:32.034Z,3.40
2018-08-19T15:32:03.961Z,3.27
2018-08-19T15:34:34.302Z,2.87
2018-08-19T15:37:05.448Z,5.25
2018-08-19T15:39:36.066Z,2.83
2018-08-19T15:42:06.505Z,6.12
2018-08-19T15:44:36.663Z,4.33
2018-08-19T15:47:07.345Z,5.05
2018-08-19T15:49:37.762Z,4.47
2018-08-19T15:52:08.544Z,4.17
2018-08-19T15:54:39.558Z,2.70
2018-08-19T15:57:09.965Z,2.87
2018-08-19T15:59:40.543Z,2.97
2018-08-19T16:02:11.147Z,3.22
2018-08-19T16:04:42.401Z,2.85
2018-08-19T16:07:12.754Z,4.08
2018-08-19T16:09:43.432Z,3.70
2018-08-19T16:12:13.878Z,3.00
2018-08-19T16:14:44.662Z,3.25
2018-08-19T16:17:15.925Z,3.90
2018-08-19T16:19:46.532Z,3.72
2018-08-19T16:22:17.242Z,3.50
2018-08-19T16:24:47.744Z,3.35
2018-08-19T16:27:18.493Z,3.75
2018-08-19T16:29:49.214Z,3.90
2018-08-19T16:32:20.333Z,4.10
2018-08-19T16:34:51.747Z,3.05
2018-08-19T16:37:22.349Z,6.10
2018-08-19T16:39:52.922Z,5.20
2018-08-19T16:42:24.315Z,7.97
2018-08-19T16:44:54.928Z,5.67
2018-08-19T16:47:25.062Z,5.77
2018-08-19T16:49:56.356Z,5.70
2018-08-19T16:52:27.506Z,6.07
2018-08-19T16:54:58.064Z,6.60
2018-08-19T16:57:28.446Z,4.47
2018-08-19T16:59:59.509Z,4.33
2018-08-19T17:02:30.124Z,4.50
2018-08-19T17:05:01.630Z,3.97
2018-08-19T17:07:33.063Z,5.80
2018-08-19T17:10:04.879Z,4.80
2018-08-19T17:12:35.908Z,5.67
2018-08-19T17:15:07.231Z,5.77
2018-08-19T17:17:37.934Z,5.30
2018-08-19T17:20:08.523Z,4.23
2018-08-19T17:22:40.760Z,4.90
2018-08-19T17:25:12.614Z,4.30
2018-08-19T17:27:42.992Z,5.93
2018-08-19T17:30:17.685Z,5.40
2018-08-19T17:32:52.103Z,6.20
2018-08-19T17:35:22.555Z,5.33
2018-08-19T17:37:53.928Z,4.83
2018-08-19T17:40:25.595Z,5.27
2018-08-19T17:42:56.102Z,5.05
2018-08-19T17:45:27.399Z,4.97
2018-08-19T17:47:58.063Z,5.87
2018-08-19T17:50:29.380Z,5.53
2018-08-19T17:53:01.110Z,4.63
2018-08-19T17:55:32.231Z,4.43
2018-08-19T17:58:03.673Z,5.10
2018-08-19T18:00:34.406Z,6.80
2018-08-19T18:03:05.016Z,4.97
2018-08-19T18:05:36.757Z,4.93
2018-08-19T18:08:10.932Z,5.37
2018-08-19T18:10:44.576Z,4.00
2018-08-19T18:13:14.800Z,5.20
2018-08-19T18:15:45.655Z,5.20
2018-08-19T18:18:16.139Z,4.53
2018-08-19T18:20:48.182Z,5.08
2018-08-19T18:23:24.578Z,5.37
2018-08-19T20:04:17.088Z,6.40
2018-08-19T20:06:47.162Z,7.30
2018-08-19T20:09:17.228Z,7.03
2018-08-19T20:11:47.288Z,7.00
2018-08-19T20:14:18.340Z,7.10
2018-08-19T20:16:48.541Z,7.42
2018-08-19T20:19:18.657Z,7.53
2018-08-19T20:21:49.349Z,7.17
2018-08-19T20:24:22.094Z,7.37
2018-08-19T20:26:52.178Z,7.30
2018-08-19T20:29:22.688Z,8.50
2018-08-19T20:31:52.642Z,6.53
2018-08-19T20:34:22.557Z,6.92
2018-08-19T20:36:53.111Z,7.33
2018-08-19T20:39:22.848Z,5.95
2018-08-19T20:41:52.966Z,7.33
2018-08-19T20:44:23.095Z,7.10
2018-08-19T20:46:57.234Z,7.50
2018-08-19T20:49:28.239Z,7.03
2018-08-19T20:51:58.438Z,6.83
2018-08-19T20:54:28.570Z,7.95
2018-08-19T20:56:59.352Z,8.73
2018-08-19T20:59:34.630Z,9.98
2018-08-19T21:02:06.250Z,7.10
2018-08-19T21:04:36.578Z,7.87
2018-08-19T21:07:08.254Z,12.33
2018-08-19T21:09:38.891Z,8.17
2018-08-19T21:12:09.187Z,8.20
2018-08-19T21:14:39.545Z,7.60
2018-08-19T21:17:09.985Z,15.27
2018-08-19T21:19:42.977Z,7.63
2018-08-19T21:22:13.380Z,11.23
2018-08-19T21:24:43.672Z,7.37
2018-08-19T21:27:13.838Z,9.17
2018-08-19T21:29:44.560Z,12.27
2018-08-19T21:32:14.827Z,10.73
2018-08-19T21:34:45.284Z,7.87
2018-08-19T21:37:22.351Z,9.20
2018-08-19T21:39:52.659Z,7.47
2018-08-19T21:42:23.076Z,6.83
2018-08-19T21:44:53.243Z,7.17
2018-08-19T21:47:23.805Z,10.63
2018-08-19T21:49:58.115Z,10.30
2018-08-19T21:52:28.728Z,12.33
2018-08-19T21:55:00.043Z,9.27
2018-08-19T21:57:29.688Z,8.00
2018-08-19T21:59:59.954Z,9.30
2018-08-19T22:02:34.830Z,11.53
2018-08-19T22:05:05.468Z,10.73
2018-08-19T22:07:36.468Z,9.98
2018-08-19T22:10:07.561Z,9.87
2018-08-19T22:12:41.543Z,10.33
2018-08-19T22:15:11.922Z,9.47
2018-08-19T22:17:42.168Z,12.77
2018-08-19T22:20:12.344Z,11.43
2018-08-19T22:22:42.924Z,13.53
2018-08-19T22:25:13.915Z,9.40
2018-08-19T22:27:44.100Z,7.83
2018-08-19T22:30:14.628Z,9.00
2018-08-19T22:32:44.876Z,10.37
2018-08-19T22:35:15.280Z,9.83
2018-08-19T22:37:45.876Z,8.00
2018-08-19T22:40:19.184Z,9.37
2018-08-19T22:42:49.518Z,8.50
2018-08-19T22:45:19.842Z,7.72
2018-08-19T22:47:53.834Z,7.90
2018-08-19T22:50:24.103Z,8.53
2018-08-19T22:52:54.536Z,9.23
2018-08-19T22:55:24.857Z,8.58
2018-08-19T22:58:01.875Z,11.93
2018-08-19T23:00:33.326Z,11.83
2018-08-19T23:03:07.862Z,9.37
2018-08-19T23:05:39.055Z,8.57
2018-08-19T23:08:11.276Z,9.33
2018-08-19T23:10:43.623Z,9.20
2018-08-19T23:13:28.931Z,13.20
2018-08-19T23:15:59.886Z,8.27
2018-08-19T23:18:30.975Z,8.65
2018-08-19T23:21:02.045Z,10.35
2018-08-19T23:23:32.866Z,10.80
2018-08-19T23:26:04.034Z,8.57
2018-08-19T23:28:34.886Z,9.13
2018-08-19T23:31:05.827Z,13.87
2018-08-19T23:33:37.584Z,8.80
2018-08-19T23:36:08.667Z,9.23
2018-08-19T23:38:40.225Z,8.80
2018-08-19T23:41:11.059Z,10.47
2018-08-19T23:43:41.960Z,8.83
2018-08-19T23:46:12.422Z,12.13
2018-08-19T23:48:42.673Z,8.37
2018-08-19T23:51:18.352Z,8.60
2018-08-19T23:53:50.015Z,13.10
2018-08-19T23:56:20.591Z,9.58
2018-08-19T23:58:51.897Z,9.65
